Time;durP1;ratioP1;P1;durP2;ratioP2;P2;SDS_P1;SDS_P2;PMS_P1;PMS_P2;Temp;Humidity;BMP_temperature;BMP_pressure;BME280_temperature;BME280_humidity;BME280_pressure;Samples;Min_cycle;Max_cycle;Signal;HPM_P1;HPM_P2
2020/12/23 00:01:58;;;;;;;1.60;1.00;;;11.90;98.20;;;;;;5027803;28;20512;-76
2020/12/23 00:04:25;;;;;;;1.67;1.13;;;11.90;98.20;;;;;;5028539;28;20489;-76
2020/12/23 00:06:51;;;;;;;1.60;1.10;;;11.90;98.20;;;;;;5030797;28;20558;-77
2020/12/23 00:09:18;;;;;;;1.60;1.10;;;11.90;98.20;;;;;;5031664;28;20498;-76
2020/12/23 00:11:45;;;;;;;1.60;1.13;;;11.90;98.20;;;;;;5022735;28;20542;-76
2020/12/23 00:14:11;;;;;;;1.60;1.10;;;11.90;98.20;;;;;;5027398;28;20499;-76
2020/12/23 00:16:41;;;;;;;1.60;1.10;;;11.90;98.20;;;;;;5029613;28;20474;-77
2020/12/23 00:19:08;;;;;;;1.63;1.10;;;11.80;98.20;;;;;;5024790;28;20502;-76
2020/12/23 00:21:34;;;;;;;1.60;1.10;;;11.80;98.20;;;;;;5026173;28;20574;-79
2020/12/23 00:24:00;;;;;;;1.63;1.13;;;11.80;98.20;;;;;;5033845;28;20546;-76
2020/12/23 00:26:28;;;;;;;1.60;1.10;;;11.80;98.20;;;;;;5036539;28;20491;-76
2020/12/23 00:28:54;;;;;;;1.60;1.10;;;11.80;98.20;;;;;;5027512;28;20893;-76
2020/12/23 00:31:20;;;;;;;1.63;1.20;;;11.80;98.20;;;;;;5027494;28;20570;-76
2020/12/23 00:33:47;;;;;;;1.67;1.10;;;11.80;98.20;;;;;;5026822;28;20962;-76
2020/12/23 00:36:14;;;;;;;1.60;1.10;;;11.80;98.20;;;;;;5029410;28;20602;-76
2020/12/23 00:38:41;;;;;;;1.63;1.10;;;11.80;98.20;;;;;;5026572;28;20846;-77
2020/12/23 00:41:10;;;;;;;1.60;1.10;;;11.80;98.20;;;;;;5030009;28;20514;-77
2020/12/23 00:43:38;;;;;;;1.67;1.20;;;11.70;98.20;;;;;;5030282;28;20561;-77
2020/12/23 00:46:05;;;;;;;1.60;1.10;;;11.70;98.20;;;;;;5026198;28;20758;-77
2020/12/23 00:48:32;;;;;;;1.60;1.10;;;11.70;98.20;;;;;;5030251;28;20887;-77
2020/12/23 00:50:58;;;;;;;1.60;1.10;;;11.70;98.20;;;;;;5030158;28;20574;-77
2020/12/23 00:53:24;;;;;;;1.67;1.10;;;11.70;98.20;;;;;;5033439;28;20459;-76
2020/12/23 00:55:51;;;;;;;1.63;1.10;;;11.70;98.20;;;;;;5028779;28;21167;-76
2020/12/23 00:58:17;;;;;;;1.60;1.10;;;11.70;98.20;;;;;;5027834;28;20527;-76
2020/12/23 01:00:45;;;;;;;1.67;1.10;;;11.70;98.20;;;;;;5029984;28;20464;-77
2020/12/23 01:03:11;;;;;;;1.60;1.10;;;11.70;98.20;;;;;;5027375;28;20500;-76
2020/12/23 01:05:37;;;;;;;1.67;1.13;;;11.70;98.20;;;;;;5027857;28;20503;-76
2020/12/23 01:08:04;;;;;;;1.67;1.20;;;11.70;98.20;;;;;;5030283;28;20494;-76
2020/12/23 01:10:30;;;;;;;1.60;1.17;;;11.70;98.20;;;;;;5023369;28;20460;-76
2020/12/23 01:12:57;;;;;;;1.60;1.20;;;11.70;98.20;;;;;;5027471;28;21024;-78
2020/12/23 01:15:23;;;;;;;1.67;1.10;;;11.70;98.20;;;;;;5028052;28;20551;-76
2020/12/23 01:17:50;;;;;;;1.60;1.10;;;11.70;98.20;;;;;;5029992;28;20840;-76
2020/12/23 01:20:17;;;;;;;1.63;1.10;;;11.70;98.20;;;;;;5025210;28;21019;-76
2020/12/23 01:22:43;;;;;;;1.70;1.20;;;11.70;98.20;;;;;;5026886;28;20583;-77
2020/12/23 01:25:10;;;;;;;1.70;1.30;;;11.70;98.20;;;;;;5033284;28;20977;-76
2020/12/23 01:27:36;;;;;;;1.60;1.10;;;11.70;98.20;;;;;;5029484;28;20495;-76
2020/12/23 01:30:03;;;;;;;1.60;1.13;;;11.70;98.20;;;;;;5023855;28;21023;-76
2020/12/23 01:32:30;;;;;;;1.63;1.13;;;11.70;98.20;;;;;;5024672;28;20598;-77
2020/12/23 01:34:57;;;;;;;1.60;1.10;;;11.70;98.20;;;;;;5029410;28;20506;-76
2020/12/23 01:37:23;;;;;;;1.60;1.00;;;11.70;98.20;;;;;;5029542;28;20900;-77
2020/12/23 01:39:50;;;;;;;1.60;1.10;;;11.80;98.20;;;;;;5023908;28;21200;-76
2020/12/23 01:42:16;;;;;;;1.60;1.10;;;11.80;98.20;;;;;;5023432;28;20546;-76
2020/12/23 01:44:42;;;;;;;1.60;1.00;;;11.80;98.20;;;;;;5029569;28;21055;-76
2020/12/23 01:47:16;;;;;;;1.60;1.00;;;11.80;98.20;;;;;;5025124;28;20499;-77
2020/12/23 01:49:43;;;;;;;1.60;1.10;;;11.80;98.20;;;;;;5020984;28;21038;-76
2020/12/23 01:52:10;;;;;;;1.60;1.10;;;11.80;98.20;;;;;;5028759;28;20908;-76
2020/12/23 01:54:38;;;;;;;1.60;1.10;;;11.80;98.20;;;;;;5036275;28;20563;-76
2020/12/23 01:57:10;;;;;;;1.60;1.00;;;11.80;98.20;;;;;;5024995;28;21055;-76
2020/12/23 01:59:37;;;;;;;1.67;1.20;;;11.80;98.20;;;;;;5027361;28;20601;-76
2020/12/23 02:02:31;;;;;;;1.60;1.00;;;11.80;98.20;;;;;;5026433;28;20938;-76
2020/12/23 02:04:59;;;;;;;1.60;1.10;;;11.80;98.20;;;;;;5021647;28;20929;-76
2020/12/23 02:07:28;;;;;;;1.60;1.07;;;11.80;98.20;;;;;;5025802;28;20498;-76
2020/12/23 02:09:57;;;;;;;1.60;1.10;;;11.80;98.20;;;;;;5030088;28;20537;-77
2020/12/23 02:12:24;;;;;;;1.67;1.10;;;11.80;98.20;;;;;;5030144;28;20532;-77
2020/12/23 02:14:54;;;;;;;1.60;1.03;;;11.80;98.20;;;;;;5026908;28;20503;-77
2020/12/23 02:17:20;;;;;;;1.60;1.10;;;11.80;98.20;;;;;;5027346;28;20451;-76
2020/12/23 02:19:50;;;;;;;1.60;1.10;;;11.80;98.20;;;;;;5021532;28;20463;-77
2020/12/23 02:22:20;;;;;;;1.60;1.10;;;11.80;98.20;;;;;;5019764;28;20515;-77
2020/12/23 02:24:50;;;;;;;1.67;1.10;;;11.80;98.20;;;;;;5031408;28;20502;-76
2020/12/23 02:27:17;;;;;;;1.60;1.10;;;11.80;98.20;;;;;;5031031;28;20507;-77
2020/12/23 02:29:44;;;;;;;1.60;1.10;;;11.80;98.20;;;;;;5019904;28;21031;-77
2020/12/23 02:32:11;;;;;;;1.60;1.10;;;11.80;98.20;;;;;;5030321;28;20761;-76
2020/12/23 02:34:37;;;;;;;1.60;1.10;;;11.70;98.20;;;;;;5037345;28;20821;-76
2020/12/23 02:37:05;;;;;;;1.67;1.20;;;11.70;98.20;;;;;;5030658;28;20571;-77
2020/12/23 02:39:33;;;;;;;1.60;1.10;;;11.70;98.20;;;;;;5030234;28;20464;-77
2020/12/23 02:42:02;;;;;;;1.60;1.00;;;11.70;98.20;;;;;;5032067;28;20792;-76
2020/12/23 02:44:29;;;;;;;1.60;1.10;;;11.70;98.20;;;;;;5031351;28;20620;-76
2020/12/23 02:46:58;;;;;;;1.60;1.10;;;11.70;98.20;;;;;;5028885;28;20962;-76
2020/12/23 02:49:26;;;;;;;1.63;1.10;;;11.70;98.20;;;;;;5030628;28;20499;-76
2020/12/23 02:51:52;;;;;;;1.60;1.10;;;11.70;98.20;;;;;;5032079;28;20567;-76
2020/12/23 02:54:20;;;;;;;1.60;1.10;;;11.70;98.20;;;;;;5030479;28;20917;-77
2020/12/23 02:56:47;;;;;;;1.60;1.07;;;11.70;98.20;;;;;;5033162;28;21090;-77
2020/12/23 02:59:14;;;;;;;1.60;1.10;;;11.70;98.20;;;;;;5031227;28;20896;-76
2020/12/23 03:01:41;;;;;;;1.60;1.10;;;11.70;98.20;;;;;;5032019;28;21169;-77
2020/12/23 03:04:08;;;;;;;1.63;1.20;;;11.70;98.20;;;;;;5029649;28;20716;-76
2020/12/23 03:06:35;;;;;;;1.63;1.20;;;11.70;98.20;;;;;;5026042;28;20984;-77
2020/12/23 03:09:02;;;;;;;1.60;1.10;;;11.70;98.20;;;;;;5032315;28;20486;-77
2020/12/23 03:11:28;;;;;;;1.60;1.10;;;11.70;98.20;;;;;;5031903;28;20529;-76
2020/12/23 03:13:55;;;;;;;1.63;1.10;;;11.70;98.20;;;;;;5030643;28;20546;-77
2020/12/23 03:16:22;;;;;;;1.70;1.20;;;11.70;98.20;;;;;;5030398;28;20464;-77
2020/12/23 03:18:48;;;;;;;1.70;1.20;;;11.70;98.20;;;;;;5032000;28;20551;-78
2020/12/23 03:21:15;;;;;;;1.60;1.13;;;11.70;98.20;;;;;;5030689;28;20606;-76
2020/12/23 03:23:41;;;;;;;1.60;1.10;;;11.70;98.20;;;;;;5034095;28;20471;-77
2020/12/23 03:26:08;;;;;;;1.60;1.10;;;11.70;98.20;;;;;;5034961;28;20542;-76
2020/12/23 03:28:34;;;;;;;1.60;1.10;;;11.70;98.20;;;;;;5031524;28;20558;-77
2020/12/23 03:31:02;;;;;;;1.60;1.10;;;11.70;98.20;;;;;;5028795;28;20518;-77
2020/12/23 03:33:29;;;;;;;1.60;1.03;;;11.70;98.20;;;;;;5029132;28;20459;-77
2020/12/23 03:35:57;;;;;;;1.60;1.10;;;11.70;98.20;;;;;;5028494;28;20512;-76
2020/12/23 03:38:23;;;;;;;1.70;1.20;;;11.70;98.20;;;;;;5029727;28;20543;-76
2020/12/23 03:40:50;;;;;;;1.60;1.10;;;11.70;98.20;;;;;;5030458;28;20575;-78
2020/12/23 03:43:16;;;;;;;1.60;1.00;;;11.70;98.20;;;;;;5029172;28;20848;-76
2020/12/23 03:45:43;;;;;;;1.67;1.20;;;11.70;98.20;;;;;;5030157;28;20487;-77
2020/12/23 03:48:09;;;;;;;1.67;1.10;;;11.70;98.20;;;;;;5031060;28;20973;-75
2020/12/23 03:50:36;;;;;;;1.60;1.10;;;11.70;98.20;;;;;;5031363;28;20543;-76
2020/12/23 03:53:03;;;;;;;1.60;1.20;;;11.60;98.20;;;;;;5031798;28;20507;-76
2020/12/23 03:55:29;;;;;;;1.60;1.10;;;11.60;98.20;;;;;;5039689;28;20454;-76
2020/12/23 03:57:56;;;;;;;1.63;1.10;;;11.60;98.20;;;;;;5031202;28;20554;-76
2020/12/23 04:00:22;;;;;;;1.60;1.10;;;11.60;98.20;;;;;;5028900;28;20902;-76
2020/12/23 04:02:49;;;;;;;1.60;1.10;;;11.60;98.20;;;;;;5027511;28;20490;-74
2020/12/23 04:05:15;;;;;;;1.60;1.20;;;11.60;98.20;;;;;;5030565;28;20883;-75
2020/12/23 04:07:43;;;;;;;1.63;1.30;;;11.60;98.20;;;;;;5029970;28;20496;-76
2020/12/23 04:10:09;;;;;;;1.63;1.10;;;11.60;98.20;;;;;;5030781;28;20574;-74
2020/12/23 04:12:36;;;;;;;1.60;1.10;;;11.60;98.20;;;;;;5031152;28;20542;-75
2020/12/23 04:15:04;;;;;;;1.60;1.10;;;11.60;98.20;;;;;;5025879;28;20513;-76
2020/12/23 04:17:30;;;;;;;1.60;1.10;;;11.50;98.20;;;;;;5026735;28;20510;-76
2020/12/23 04:19:57;;;;;;;1.60;1.10;;;11.50;98.20;;;;;;5029994;28;20470;-75
2020/12/23 04:22:23;;;;;;;1.63;1.10;;;11.50;98.20;;;;;;5028731;28;20574;-75
2020/12/23 04:24:51;;;;;;;1.67;1.20;;;11.60;98.20;;;;;;5033933;28;20832;-75
2020/12/23 04:27:17;;;;;;;1.60;1.10;;;11.60;98.20;;;;;;5029726;28;20456;-76
2020/12/23 04:29:43;;;;;;;1.60;1.10;;;11.60;98.20;;;;;;5026696;28;20464;-76
2020/12/23 04:32:10;;;;;;;1.60;1.10;;;11.60;98.20;;;;;;5029257;28;20530;-76
2020/12/23 04:34:36;;;;;;;1.60;1.10;;;11.60;98.20;;;;;;5029351;28;20547;-77
2020/12/23 04:37:03;;;;;;;1.60;1.10;;;11.60;98.20;;;;;;5025030;28;20556;-75
2020/12/23 04:39:29;;;;;;;1.60;1.10;;;11.60;98.20;;;;;;5021461;28;20491;-75
2020/12/23 04:41:56;;;;;;;1.60;1.10;;;11.60;98.20;;;;;;5026313;28;20518;-76
2020/12/23 04:44:24;;;;;;;1.60;1.07;;;11.60;98.20;;;;;;5029010;28;20468;-76
2020/12/23 04:46:51;;;;;;;1.60;1.03;;;11.60;98.20;;;;;;5028264;28;20544;-76
2020/12/23 04:49:21;;;;;;;1.70;1.20;;;11.70;98.20;;;;;;5028949;28;20555;-78
2020/12/23 04:51:53;;;;;;;1.60;1.00;;;11.60;98.20;;;;;;5024922;28;20484;-77
2020/12/23 04:54:20;;;;;;;1.60;1.10;;;11.70;98.20;;;;;;5039866;28;20507;-78
2020/12/23 04:56:46;;;;;;;1.60;1.10;;;11.70;98.20;;;;;;5021761;28;20492;-77
2020/12/23 04:59:14;;;;;;;1.60;1.10;;;11.70;98.20;;;;;;5027735;28;20546;-78
2020/12/23 05:01:41;;;;;;;1.60;1.10;;;11.70;98.20;;;;;;5029410;28;20475;-78
2020/12/23 05:04:08;;;;;;;1.67;1.10;;;11.70;98.20;;;;;;5030004;28;20472;-78
2020/12/23 05:06:36;;;;;;;1.60;1.10;;;11.70;98.20;;;;;;5020759;28;20547;-78
2020/12/23 05:09:05;;;;;;;1.60;1.00;;;11.70;98.20;;;;;;5024925;28;20583;-78
2020/12/23 05:11:33;;;;;;;1.67;1.10;;;11.70;98.20;;;;;;5029756;28;21072;-78
2020/12/23 05:14:03;;;;;;;1.60;1.20;;;11.80;98.20;;;;;;5028356;28;20537;-78
2020/12/23 05:16:32;;;;;;;1.63;1.10;;;11.70;98.20;;;;;;5026124;28;20460;-77
2020/12/23 05:18:59;;;;;;;1.70;1.20;;;11.70;98.20;;;;;;5029910;28;20582;-79
2020/12/23 05:21:31;;;;;;;1.60;1.13;;;11.70;98.20;;;;;;5021138;28;20512;-77
2020/12/23 05:23:58;;;;;;;1.60;1.00;;;11.70;98.20;;;;;;5021420;28;20491;-79
2020/12/23 05:26:25;;;;;;;1.60;1.10;;;11.80;98.20;;;;;;5022253;28;20474;-77
2020/12/23 05:28:53;;;;;;;1.60;1.10;;;11.70;98.20;;;;;;5032832;28;20494;-78
2020/12/23 05:31:22;;;;;;;1.60;1.00;;;11.70;98.20;;;;;;5022070;28;20741;-78
2020/12/23 05:33:50;;;;;;;1.60;1.10;;;11.70;98.20;;;;;;5021781;28;20466;-80
2020/12/23 05:36:18;;;;;;;1.60;1.20;;;11.80;98.20;;;;;;5028906;28;20487;-78
2020/12/23 05:38:46;;;;;;;1.60;1.10;;;11.70;98.20;;;;;;5032239;28;20467;-77
2020/12/23 05:41:14;;;;;;;1.60;1.10;;;11.70;98.20;;;;;;5022769;28;20510;-78
2020/12/23 05:43:41;;;;;;;1.63;1.20;;;11.70;98.20;;;;;;5032378;28;20467;-78
2020/12/23 05:46:09;;;;;;;1.63;1.10;;;11.70;98.20;;;;;;5028943;28;20955;-77
2020/12/23 05:48:37;;;;;;;1.60;1.10;;;11.70;98.20;;;;;;5024097;28;20491;-77
2020/12/23 05:51:05;;;;;;;1.67;1.20;;;11.70;98.20;;;;;;5024643;28;20907;-77
2020/12/23 05:53:34;;;;;;;1.60;1.00;;;11.70;98.20;;;;;;5033550;28;20518;-78
2020/12/23 05:56:01;;;;;;;1.60;1.10;;;11.70;98.20;;;;;;5030318;28;20487;-77
2020/12/23 05:58:29;;;;;;;1.63;1.10;;;11.70;98.20;;;;;;5024705;28;20522;-77
2020/12/23 06:00:57;;;;;;;1.60;1.10;;;11.80;98.20;;;;;;5025660;28;20550;-76
2020/12/23 06:03:29;;;;;;;1.60;1.10;;;11.80;98.20;;;;;;5025048;28;20960;-77
2020/12/23 06:06:03;;;;;;;1.60;1.10;;;11.80;98.20;;;;;;5036217;28;20943;-76
2020/12/23 06:08:32;;;;;;;1.60;1.10;;;11.80;98.20;;;;;;5029811;28;20546;-77
2020/12/23 06:11:26;;;;;;;1.60;1.10;;;11.80;98.20;;;;;;5026600;28;20748;-75
2020/12/23 06:14:08;;;;;;;1.60;1.10;;;11.80;98.20;;;;;;5025921;28;20494;-75
2020/12/23 06:16:36;;;;;;;1.67;1.23;;;11.80;98.20;;;;;;5023737;28;20502;-76
2020/12/23 06:19:05;;;;;;;1.67;1.20;;;11.80;98.20;;;;;;5026161;28;20506;-75
2020/12/23 06:21:32;;;;;;;1.63;1.17;;;11.80;98.20;;;;;;5024126;28;20582;-77
2020/12/23 06:24:03;;;;;;;1.60;1.10;;;11.80;98.20;;;;;;5025717;28;20551;-77
2020/12/23 06:26:31;;;;;;;1.63;1.10;;;11.80;98.20;;;;;;5030096;28;20566;-76
2020/12/23 06:29:00;;;;;;;1.70;1.20;;;11.80;98.20;;;;;;5029606;28;20506;-77
2020/12/23 06:31:30;;;;;;;1.70;1.20;;;11.80;98.20;;;;;;5035073;28;20510;-76
2020/12/23 06:33:59;;;;;;;1.60;1.03;;;11.90;98.20;;;;;;5039546;28;20562;-76
2020/12/23 06:36:30;;;;;;;1.60;1.10;;;11.90;98.20;;;;;;5027865;28;20821;-77
2020/12/23 06:39:32;;;;;;;1.60;1.03;;;11.90;98.20;;;;;;5026932;28;20473;-76
2020/12/23 06:42:35;;;;;;;1.67;1.10;;;11.90;98.20;;;;;;4941960;28;20467;-76
2020/12/23 06:45:13;;;;;;;1.60;1.10;;;12.00;98.20;;;;;;4951778;28;20463;-77
2020/12/23 06:47:41;;;;;;;1.70;1.30;;;12.00;98.20;;;;;;5009152;28;20518;-76
2020/12/23 06:50:31;;;;;;;1.60;1.10;;;12.00;98.20;;;;;;5029388;28;20467;-77
2020/12/23 06:52:58;;;;;;;1.67;1.20;;;12.00;98.20;;;;;;5018551;28;20487;-76
2020/12/23 06:55:47;;;;;;;1.60;1.10;;;12.00;98.20;;;;;;5030139;28;20942;-77
2020/12/23 06:58:39;;;;;;;1.60;1.10;;;12.00;98.20;;;;;;5026540;28;20917;-76
2020/12/23 07:01:23;;;;;;;1.60;1.13;;;11.90;98.20;;;;;;5029752;28;20535;-76
2020/12/23 07:03:50;;;;;;;1.60;1.10;;;11.90;98.20;;;;;;5031687;28;20471;-77
2020/12/23 07:06:31;;;;;;;1.60;1.10;;;11.90;98.20;;;;;;5036472;28;20455;-77
2020/12/23 07:09:01;;;;;;;1.60;1.00;;;11.90;98.20;;;;;;5037973;28;20479;-76
2020/12/23 07:11:32;;;;;;;1.67;1.17;;;11.90;98.20;;;;;;5035074;28;20484;-77
2020/12/23 07:14:00;;;;;;;1.60;1.10;;;11.90;98.20;;;;;;5039853;28;20486;-76
2020/12/23 07:16:27;;;;;;;1.60;1.10;;;11.80;98.20;;;;;;5040935;28;20471;-76
2020/12/23 07:18:57;;;;;;;1.60;1.10;;;11.80;98.20;;;;;;5038800;28;20942;-76
2020/12/23 07:21:28;;;;;;;1.60;1.10;;;11.80;98.20;;;;;;5037146;28;21040;-76
2020/12/23 07:23:58;;;;;;;1.60;1.20;;;11.80;98.20;;;;;;5033085;28;20486;-76
2020/12/23 07:26:26;;;;;;;1.60;1.10;;;11.80;98.20;;;;;;5034593;28;20455;-77
2020/12/23 07:28:53;;;;;;;1.60;1.10;;;11.80;98.20;;;;;;5026280;28;20819;-76
2020/12/23 07:31:20;;;;;;;1.60;1.10;;;11.80;98.20;;;;;;5031379;28;20478;-76
2020/12/23 07:33:46;;;;;;;1.67;1.20;;;11.80;98.20;;;;;;5040832;28;20471;-76
2020/12/23 07:36:13;;;;;;;1.63;1.13;;;11.80;98.20;;;;;;5031124;28;20859;-76
2020/12/23 07:38:40;;;;;;;1.60;1.10;;;11.80;98.20;;;;;;5031150;28;20456;-76
2020/12/23 07:41:11;;;;;;;2.70;2.30;;;11.80;98.20;;;;;;5031309;28;20484;-77
2020/12/23 07:43:37;;;;;;;1.60;1.10;;;11.90;98.20;;;;;;5029769;28;20474;-78
2020/12/23 07:46:04;;;;;;;1.60;1.10;;;11.90;98.20;;;;;;5028173;28;20610;-77
2020/12/23 07:48:31;;;;;;;1.60;1.00;;;11.90;98.20;;;;;;5031301;28;20543;-76
2020/12/23 07:50:58;;;;;;;1.60;1.00;;;11.90;98.20;;;;;;5031470;28;20492;-78
2020/12/23 07:53:26;;;;;;;1.60;1.00;;;11.90;98.20;;;;;;5033693;28;20498;-76
2020/12/23 07:55:58;;;;;;;1.60;1.10;;;11.80;98.20;;;;;;5026765;28;20552;-77
2020/12/23 07:58:25;;;;;;;1.60;1.10;;;11.80;98.20;;;;;;5035353;28;20882;-76
2020/12/23 08:00:51;;;;;;;1.60;1.00;;;11.80;98.20;;;;;;5033038;28;20543;-77
2020/12/23 08:03:26;;;;;;;1.67;1.10;;;11.80;98.20;;;;;;5029274;28;20491;-78
2020/12/23 08:06:06;;;;;;;1.70;1.20;;;11.80;98.20;;;;;;5031743;28;20973;-78
2020/12/23 08:08:33;;;;;;;1.60;1.10;;;11.80;98.20;;;;;;5033209;28;20516;-77
2020/12/23 08:11:07;;;;;;;1.60;1.03;;;11.80;98.20;;;;;;5030583;28;20460;-77
2020/12/23 08:13:33;;;;;;;1.60;1.10;;;11.80;98.20;;;;;;5033495;28;20845;-77
2020/12/23 08:16:08;;;;;;;1.60;1.10;;;11.80;98.20;;;;;;5032956;28;21049;-78
2020/12/23 08:18:35;;;;;;;1.60;1.00;;;11.80;98.20;;;;;;5031914;28;20848;-77
2020/12/23 08:21:10;;;;;;;1.60;1.10;;;11.80;98.20;;;;;;5026958;28;20555;-77
2020/12/23 08:23:36;;;;;;;1.60;1.10;;;11.80;98.20;;;;;;5030950;28;20489;-77
2020/12/23 08:26:05;;;;;;;1.60;1.00;;;11.80;98.20;;;;;;5032952;28;20467;-76
2020/12/23 08:28:34;;;;;;;1.60;1.10;;;11.80;98.20;;;;;;5031079;28;20566;-77
2020/12/23 08:31:02;;;;;;;1.63;1.10;;;11.80;98.20;;;;;;5030022;28;20463;-77
2020/12/23 08:33:30;;;;;;;1.60;1.10;;;11.80;98.20;;;;;;5027018;28;20478;-76
2020/12/23 08:36:01;;;;;;;1.60;1.03;;;11.80;98.20;;;;;;5026683;28;20495;-77
2020/12/23 08:38:28;;;;;;;1.60;1.00;;;11.80;98.20;;;;;;5030403;28;20475;-77
2020/12/23 08:40:57;;;;;;;1.60;1.10;;;11.90;98.20;;;;;;5027297;28;20476;-77
2020/12/23 08:43:25;;;;;;;1.80;1.40;;;12.00;98.20;;;;;;5026679;28;20552;-78
2020/12/23 08:45:53;;;;;;;1.67;1.10;;;11.90;98.20;;;;;;5028060;28;20499;-77
2020/12/23 08:48:20;;;;;;;1.70;1.20;;;12.00;98.20;;;;;;5030255;28;20517;-77
2020/12/23 08:50:53;;;;;;;1.63;1.10;;;12.00;98.20;;;;;;5025891;28;20546;-77
2020/12/23 08:53:29;;;;;;;1.60;1.10;;;12.00;98.20;;;;;;5029649;28;20570;-77
2020/12/23 08:55:56;;;;;;;1.60;1.10;;;12.00;98.20;;;;;;5039485;28;20538;-77
2020/12/23 08:58:24;;;;;;;1.60;1.00;;;12.00;98.20;;;;;;5030377;28;20832;-77
2020/12/23 09:01:00;;;;;;;1.60;1.10;;;12.10;98.20;;;;;;5028707;28;20471;-77
2020/12/23 09:03:27;;;;;;;1.60;1.10;;;12.10;98.20;;;;;;5027166;28;20491;-77
2020/12/23 09:05:56;;;;;;;1.60;1.00;;;12.10;98.20;;;;;;5032268;28;20833;-78
2020/12/23 09:08:26;;;;;;;1.60;1.10;;;12.10;98.20;;;;;;5028917;28;20966;-79
2020/12/23 09:10:54;;;;;;;1.60;1.10;;;12.20;98.20;;;;;;5029991;28;20487;-78
2020/12/23 09:13:29;;;;;;;1.60;1.00;;;12.20;98.20;;;;;;5032357;28;20487;-79
2020/12/23 09:15:55;;;;;;;1.67;1.10;;;12.20;98.20;;;;;;5033069;28;20459;-78
2020/12/23 09:18:22;;;;;;;1.63;1.10;;;12.30;98.20;;;;;;5024872;28;20506;-77
2020/12/23 09:20:57;;;;;;;1.60;1.00;;;12.30;98.20;;;;;;5025368;28;20839;-78
2020/12/23 09:23:25;;;;;;;1.60;1.00;;;12.30;98.20;;;;;;5023212;28;20459;-79
2020/12/23 09:25:51;;;;;;;1.60;1.00;;;12.30;98.20;;;;;;5029770;28;20839;-79
2020/12/23 09:28:18;;;;;;;1.80;1.47;;;12.40;98.20;;;;;;5031691;28;20455;-78
2020/12/23 09:30:48;;;;;;;1.60;1.10;;;12.40;98.20;;;;;;5039387;28;20470;-79
2020/12/23 09:33:16;;;;;;;1.60;1.10;;;12.40;98.20;;;;;;5026693;28;20550;-78
2020/12/23 09:35:44;;;;;;;1.60;1.00;;;12.40;98.20;;;;;;5028533;28;20498;-79
2020/12/23 09:38:17;;;;;;;1.60;1.00;;;12.50;98.20;;;;;;5030323;28;20479;-79
2020/12/23 09:40:45;;;;;;;1.70;1.20;;;12.50;98.20;;;;;;5031239;28;20633;-80
2020/12/23 09:43:14;;;;;;;1.60;1.10;;;12.50;98.20;;;;;;5028845;28;20470;-78
2020/12/23 09:45:41;;;;;;;1.60;1.00;;;12.60;98.20;;;;;;5027743;28;20483;-79
2020/12/23 09:48:07;;;;;;;1.67;1.10;;;12.60;98.20;;;;;;5036167;28;20483;-79
2020/12/23 09:50:34;;;;;;;1.60;1.10;;;12.60;98.20;;;;;;5032236;28;20458;-79
2020/12/23 09:53:01;;;;;;;1.60;1.10;;;12.70;98.20;;;;;;5034554;28;20870;-78
2020/12/23 09:55:28;;;;;;;1.60;1.10;;;12.70;98.20;;;;;;5028376;28;20982;-78
2020/12/23 09:57:56;;;;;;;1.60;1.00;;;12.70;98.20;;;;;;5029065;28;20555;-79
2020/12/23 10:00:24;;;;;;;1.60;1.10;;;12.80;98.20;;;;;;5032117;28;20462;-79
2020/12/23 10:02:50;;;;;;;1.60;1.00;;;12.80;98.20;;;;;;5029821;28;21001;-79
2020/12/23 10:05:16;;;;;;;1.67;1.10;;;12.90;98.20;;;;;;5037597;28;20463;-79
2020/12/23 10:07:43;;;;;;;1.60;1.10;;;13.00;98.20;;;;;;5039098;28;21045;-78
2020/12/23 10:10:12;;;;;;;1.60;1.10;;;13.00;98.20;;;;;;5033848;28;20470;-79
2020/12/23 10:12:38;;;;;;;1.60;1.00;;;13.10;98.20;;;;;;5026205;28;20499;-79
2020/12/23 10:15:07;;;;;;;1.70;1.20;;;13.10;98.20;;;;;;5029127;28;20464;-79
2020/12/23 10:17:34;;;;;;;1.60;1.00;;;13.20;98.20;;;;;;5033167;28;20467;-79
2020/12/23 10:20:00;;;;;;;1.60;1.00;;;13.20;98.20;;;;;;5030141;28;20877;-79
2020/12/23 10:22:27;;;;;;;1.70;1.10;;;13.20;98.20;;;;;;5031059;28;20501;-79
2020/12/23 10:24:53;;;;;;;1.60;1.07;;;13.30;98.20;;;;;;5036403;28;20470;-79
2020/12/23 10:27:20;;;;;;;1.60;1.00;;;13.20;98.20;;;;;;5034952;28;20459;-78
2020/12/23 10:29:46;;;;;;;1.60;1.10;;;13.20;98.20;;;;;;5030097;28;20800;-80
2020/12/23 10:32:14;;;;;;;1.70;1.10;;;13.20;98.20;;;;;;5031235;28;20527;-80
2020/12/23 10:34:40;;;;;;;1.70;1.10;;;13.20;98.20;;;;;;5033224;28;20452;-80
2020/12/23 10:37:07;;;;;;;1.60;1.00;;;13.10;98.20;;;;;;5033434;28;20529;-81
2020/12/23 10:39:33;;;;;;;1.60;1.00;;;13.10;98.20;;;;;;5029227;28;20958;-79
2020/12/23 10:42:00;;;;;;;1.67;1.07;;;13.00;98.20;;;;;;5032102;28;20515;-79
2020/12/23 10:44:27;;;;;;;1.60;1.10;;;13.00;98.20;;;;;;5033957;28;20486;-79
2020/12/23 10:46:55;;;;;;;1.67;1.10;;;13.00;98.20;;;;;;5027087;28;20557;-78
2020/12/23 10:49:23;;;;;;;1.63;1.10;;;13.00;98.20;;;;;;5032623;28;20483;-79
2020/12/23 10:51:50;;;;;;;1.60;1.10;;;13.00;98.20;;;;;;5031048;28;20483;-78
2020/12/23 10:54:17;;;;;;;1.60;1.10;;;13.00;98.20;;;;;;5031575;28;20525;-79
2020/12/23 10:56:44;;;;;;;1.70;1.10;;;13.00;98.20;;;;;;5035422;28;20459;-78
2020/12/23 10:59:10;;;;;;;1.60;1.00;;;13.00;98.20;;;;;;5035290;28;20494;-78
2020/12/23 11:01:37;;;;;;;1.67;1.10;;;12.90;98.20;;;;;;5035652;28;21060;-78
2020/12/23 11:04:04;;;;;;;1.63;1.00;;;12.90;98.20;;;;;;5029165;28;20475;-78
2020/12/23 11:06:31;;;;;;;1.60;1.00;;;12.90;98.20;;;;;;5036236;28;20463;-79
2020/12/23 11:08:58;;;;;;;1.60;1.00;;;12.90;98.20;;;;;;5035118;28;20490;-80
2020/12/23 11:11:25;;;;;;;1.70;1.10;;;12.90;98.20;;;;;;5031828;28;20478;-79
2020/12/23 11:13:51;;;;;;;1.60;1.00;;;12.90;98.20;;;;;;5033588;28;20460;-79
2020/12/23 11:16:18;;;;;;;1.63;1.00;;;13.00;98.20;;;;;;5035723;28;20961;-79
2020/12/23 11:18:46;;;;;;;1.80;1.40;;;13.00;98.20;;;;;;5034073;28;20455;-80
2020/12/23 11:21:12;;;;;;;1.70;1.20;;;13.00;98.20;;;;;;5030797;28;20518;-79
2020/12/23 11:23:42;;;;;;;1.63;1.10;;;13.00;98.20;;;;;;5035579;28;20459;-80
2020/12/23 11:26:14;;;;;;;1.63;1.20;;;13.00;98.20;;;;;;5040072;28;20459;-80
2020/12/23 11:28:42;;;;;;;1.60;1.10;;;12.90;98.20;;;;;;5034159;28;20490;-80
2020/12/23 11:31:08;;;;;;;1.63;1.00;;;12.90;98.20;;;;;;5041959;28;20511;-81
2020/12/23 11:33:35;;;;;;;1.60;1.00;;;12.90;98.20;;;;;;5035839;28;20994;-81
2020/12/23 11:36:02;;;;;;;1.60;1.07;;;12.90;98.20;;;;;;5032666;28;21024;-80
2020/12/23 11:38:28;;;;;;;1.60;1.00;;;12.80;98.20;;;;;;5029139;28;20483;-79
2020/12/23 11:40:56;;;;;;;1.60;1.10;;;12.80;98.20;;;;;;5034506;28;20463;-78
2020/12/23 11:43:22;;;;;;;1.70;1.10;;;12.70;98.20;;;;;;5033839;28;20470;-79
2020/12/23 11:45:49;;;;;;;1.60;1.17;;;12.70;98.20;;;;;;5030545;28;20533;-77
2020/12/23 11:48:15;;;;;;;1.60;1.07;;;12.60;98.20;;;;;;5032028;28;20471;-78
2020/12/23 11:50:42;;;;;;;1.60;1.00;;;12.60;98.20;;;;;;5041538;28;20463;-78
2020/12/23 11:53:08;;;;;;;1.60;1.00;;;12.60;98.20;;;;;;5040835;28;20496;-79
2020/12/23 11:55:35;;;;;;;1.60;1.10;;;12.60;98.20;;;;;;5031595;28;20965;-78
2020/12/23 11:58:03;;;;;;;1.60;1.10;;;12.60;98.20;;;;;;5034576;28;20459;-77
2020/12/23 12:00:29;;;;;;;1.60;1.10;;;12.60;98.20;;;;;;5035575;28;20489;-78
2020/12/23 12:02:56;;;;;;;1.60;1.03;;;12.50;98.20;;;;;;5034187;28;20522;-78
2020/12/23 12:05:22;;;;;;;1.60;1.03;;;12.50;98.20;;;;;;5025228;28;20568;-79
2020/12/23 12:07:49;;;;;;;1.67;1.10;;;12.50;98.20;;;;;;5043216;28;20934;-78
2020/12/23 12:10:15;;;;;;;1.67;1.00;;;12.50;98.20;;;;;;5042421;28;20463;-78
2020/12/23 12:12:42;;;;;;;1.60;1.00;;;12.50;98.20;;;;;;5031755;28;20487;-78
2020/12/23 12:15:09;;;;;;;1.60;1.10;;;12.50;98.20;;;;;;5024297;28;20509;-77
2020/12/23 12:17:36;;;;;;;1.63;1.10;;;12.50;98.20;;;;;;5030783;28;20499;-78
2020/12/23 12:20:03;;;;;;;1.63;1.10;;;12.50;98.20;;;;;;5038541;28;21202;-78
2020/12/23 12:22:29;;;;;;;1.60;1.10;;;12.50;98.20;;;;;;5036853;28;20587;-77
2020/12/23 12:24:56;;;;;;;1.60;1.03;;;12.50;98.20;;;;;;5036709;28;20500;-80
2020/12/23 12:27:22;;;;;;;1.63;1.10;;;12.50;98.20;;;;;;5031454;28;20466;-78
2020/12/23 12:29:49;;;;;;;1.63;1.00;;;12.50;98.20;;;;;;5034277;28;20466;-78
2020/12/23 12:32:16;;;;;;;1.63;1.10;;;12.50;98.20;;;;;;5033302;28;20506;-78
2020/12/23 12:34:43;;;;;;;1.60;1.00;;;12.50;98.20;;;;;;5026585;28;20475;-78
2020/12/23 12:37:10;;;;;;;1.63;1.07;;;12.50;98.20;;;;;;5043896;28;20495;-78
2020/12/23 12:39:36;;;;;;;1.60;1.10;;;12.40;98.20;;;;;;5034216;28;20492;-79
2020/12/23 12:42:03;;;;;;;1.60;1.10;;;12.40;98.20;;;;;;5033372;28;20499;-77
2020/12/23 12:44:30;;;;;;;1.60;1.03;;;12.40;98.20;;;;;;5031461;28;20468;-78
2020/12/23 12:46:56;;;;;;;1.70;1.20;;;12.40;98.20;;;;;;5032184;28;20991;-78
2020/12/23 12:49:23;;;;;;;1.60;1.10;;;12.40;98.20;;;;;;5034699;28;20459;-77
2020/12/23 12:51:50;;;;;;;1.60;1.00;;;12.40;98.20;;;;;;5026055;28;20919;-77
2020/12/23 12:54:17;;;;;;;1.63;1.10;;;12.40;98.20;;;;;;5036528;28;20497;-75